createdAt,value
2018-09-06T00:00:55.738Z,51.47
2018-09-06T00:03:24.739Z,51.11
2018-09-06T00:05:53.751Z,52.04
2018-09-06T00:08:23.049Z,52.14
2018-09-06T00:10:52.065Z,52.19
2018-09-06T00:13:21.008Z,55.18
2018-09-06T00:15:50.037Z,56.11
2018-09-06T00:18:18.986Z,53.74
2018-09-06T00:20:48.024Z,53.70
2018-09-06T00:23:17.107Z,52.31
2018-09-06T00:25:46.082Z,54.41
2018-09-06T00:28:15.135Z,53.00
2018-09-06T00:30:44.159Z,52.75
2018-09-06T00:33:13.232Z,53.21
2018-09-06T00:35:42.230Z,52.03
2018-09-06T00:38:11.228Z,53.28
2018-09-06T00:40:40.256Z,52.54
2018-09-06T00:43:09.245Z,51.20
2018-09-06T00:45:38.211Z,52.74
2018-09-06T00:48:07.221Z,52.78
2018-09-06T00:50:40.267Z,54.34
2018-09-06T00:53:09.258Z,52.43
2018-09-06T00:55:38.214Z,52.05
2018-09-06T00:58:07.221Z,52.83
2018-09-06T01:00:36.297Z,53.62
2018-09-06T01:03:05.325Z,52.71
2018-09-06T01:05:34.290Z,52.18
2018-09-06T01:08:03.302Z,52.16
2018-09-06T01:10:32.270Z,53.00
2018-09-06T01:13:01.287Z,52.96
2018-09-06T01:15:30.234Z,52.23
2018-09-06T01:17:59.218Z,52.58
2018-09-06T01:20:28.173Z,53.06
2018-09-06T01:22:57.133Z,53.03
2018-09-06T01:25:28.594Z,52.75
2018-09-06T01:27:57.553Z,53.41
2018-09-06T01:30:26.433Z,53.41
2018-09-06T01:32:55.437Z,52.82
2018-09-06T01:35:24.376Z,52.99
2018-09-06T01:37:53.382Z,53.46
2018-09-06T01:40:22.422Z,53.87
2018-09-06T01:42:51.349Z,54.25
2018-09-06T01:45:20.365Z,55.01
2018-09-06T01:47:49.357Z,54.61
2018-09-06T01:50:18.285Z,56.11
2018-09-06T01:52:47.326Z,57.33
2018-09-06T01:55:16.325Z,57.22
2018-09-06T01:57:45.285Z,57.75
2018-09-06T02:00:14.245Z,58.71
2018-09-06T02:02:43.300Z,57.78
2018-09-06T02:05:16.410Z,57.14
2018-09-06T02:07:45.539Z,57.52
2018-09-06T02:10:14.458Z,59.75
2018-09-06T02:12:43.669Z,59.90
2018-09-06T02:15:12.755Z,58.40
2018-09-06T02:17:41.842Z,58.60
2018-09-06T02:20:10.773Z,57.77
2018-09-06T02:22:39.772Z,57.69
2018-09-06T02:25:08.834Z,56.51
2018-09-06T02:27:37.857Z,57.26
2018-09-06T02:30:07.034Z,56.13
2018-09-06T02:32:35.957Z,57.41
2018-09-06T02:35:04.865Z,57.73
2018-09-06T02:37:33.858Z,58.83
2018-09-06T02:40:02.829Z,59.04
2018-09-06T02:42:31.858Z,58.64
2018-09-06T02:45:00.933Z,58.64
2018-09-06T02:47:30.158Z,59.72
2018-09-06T02:50:04.221Z,58.09
2018-09-06T02:52:33.118Z,58.09
2018-09-06T02:55:02.084Z,58.67
2018-09-06T02:57:31.088Z,59.76
2018-09-06T03:00:00.136Z,60.05
2018-09-06T03:02:29.074Z,58.67
2018-09-06T03:04:58.114Z,59.58
2018-09-06T03:07:27.087Z,60.74
2018-09-06T03:09:56.098Z,59.15
2018-09-06T03:12:25.082Z,58.69
2018-09-06T03:14:54.102Z,59.10
2018-09-06T03:17:23.069Z,59.22
2018-09-06T03:19:52.060Z,60.29
2018-09-06T03:22:21.004Z,62.61
2018-09-06T03:24:49.952Z,63.27
2018-09-06T03:27:18.910Z,64.37
2018-09-06T03:29:47.925Z,66.54
2018-09-06T03:32:17.041Z,67.88
2018-09-06T03:34:46.120Z,73.53
2018-09-06T03:37:15.041Z,79.01
2018-09-06T03:39:44.174Z,76.54
2018-09-06T03:42:13.218Z,79.44
2018-09-06T03:44:42.255Z,81.31
2018-09-06T03:47:11.267Z,80.52
2018-09-06T03:49:40.230Z,78.43
2018-09-06T03:52:09.242Z,78.09
2018-09-06T03:54:38.218Z,71.33
2018-09-06T03:57:07.741Z,74.10
2018-09-06T03:59:36.742Z,77.44
2018-09-06T04:02:05.717Z,74.49
2018-09-06T04:04:34.775Z,77.56
2018-09-06T04:07:03.826Z,78.05
2018-09-06T04:09:32.805Z,78.25
2018-09-06T04:12:01.885Z,77.39
2018-09-06T04:14:30.916Z,78.88
2018-09-06T04:17:00.090Z,79.14
2018-09-06T04:19:29.416Z,78.58
2018-09-06T04:21:58.467Z,82.60
2018-09-06T04:24:27.579Z,81.04
2018-09-06T04:26:56.575Z,77.74
2018-09-06T04:29:25.858Z,80.54
2018-09-06T04:31:54.776Z,81.03
2018-09-06T04:34:23.818Z,80.41
2018-09-06T04:36:52.835Z,79.58
2018-09-06T04:39:21.846Z,79.46
2018-09-06T04:41:50.730Z,81.15
2018-09-06T04:44:19.750Z,80.25
2018-09-06T04:46:51.676Z,80.57
2018-09-06T04:49:20.970Z,77.89
2018-09-06T04:51:50.295Z,79.95
2018-09-06T04:54:19.278Z,78.96
2018-09-06T04:56:48.339Z,78.46
2018-09-06T04:59:17.416Z,80.44
2018-09-06T05:01:46.718Z,79.74
2018-09-06T05:04:15.786Z,77.93
2018-09-06T05:06:44.698Z,78.58
2018-09-06T05:09:13.723Z,79.53
2018-09-06T05:11:42.777Z,80.96
2018-09-06T05:14:11.818Z,81.37
2018-09-06T05:16:40.757Z,80.18
2018-09-06T05:19:09.793Z,80.92
2018-09-06T05:21:38.703Z,79.07
2018-09-06T05:24:07.665Z,79.31
2018-09-06T05:26:36.705Z,81.72
2018-09-06T05:29:05.613Z,79.72
2018-09-06T05:31:34.522Z,78.32
2018-09-06T05:34:03.398Z,79.56
2018-09-06T05:36:32.589Z,80.61
2018-09-06T05:39:01.508Z,78.90
2018-09-06T05:41:30.573Z,78.71
2018-09-06T05:43:59.596Z,78.93
2018-09-06T05:46:28.718Z,79.40
2018-09-06T05:48:57.969Z,78.70
2018-09-06T05:51:27.085Z,78.74
2018-09-06T05:53:56.021Z,78.22
2018-09-06T05:56:25.122Z,78.34
2018-09-06T05:58:54.075Z,78.03
2018-09-06T06:01:23.110Z,78.50
2018-09-06T06:03:52.058Z,77.58
2018-09-06T06:06:21.111Z,77.27
2018-09-06T06:08:51.603Z,77.78
2018-09-06T06:11:20.996Z,78.48
2018-09-06T06:13:49.965Z,77.71
2018-09-06T06:16:19.025Z,77.95
2018-09-06T06:18:47.982Z,77.08
2018-09-06T06:21:17.012Z,76.85
2018-09-06T06:23:46.032Z,78.53
2018-09-06T06:26:15.015Z,76.76
2018-09-06T06:28:44.022Z,77.34
2018-09-06T06:31:13.038Z,75.89
2018-09-06T06:33:41.991Z,76.39
2018-09-06T06:36:10.973Z,77.05
2018-09-06T06:38:39.943Z,75.43
2018-09-06T06:41:08.922Z,76.21
2018-09-06T06:43:37.853Z,75.26
2018-09-06T06:46:06.878Z,73.12
2018-09-06T06:48:35.803Z,72.95
2018-09-06T06:51:04.767Z,72.19
2018-09-06T06:53:33.717Z,70.13
2018-09-06T06:56:02.775Z,71.46
2018-09-06T06:58:31.908Z,69.52
2018-09-06T07:01:00.955Z,66.42
2018-09-06T07:03:29.858Z,68.51
2018-09-06T07:05:58.868Z,66.53
2018-09-06T07:08:27.820Z,65.88
2018-09-06T07:10:56.783Z,68.17
2018-09-06T07:13:25.687Z,66.37
2018-09-06T07:15:54.706Z,66.97
2018-09-06T07:18:23.836Z,67.37
2018-09-06T07:20:52.935Z,68.59
2018-09-06T07:23:21.982Z,67.72
2018-09-06T07:25:50.982Z,65.10
2018-09-06T07:28:19.942Z,66.08
2018-09-06T07:30:49.005Z,66.20
2018-09-06T07:33:17.956Z,63.90
2018-09-06T07:35:47.000Z,64.41
2018-09-06T07:38:15.875Z,64.77
2018-09-06T07:40:44.930Z,63.59
2018-09-06T07:43:13.811Z,63.97
2018-09-06T07:45:42.838Z,63.40
2018-09-06T07:48:11.911Z,63.14
2018-09-06T07:50:40.910Z,60.60
2018-09-06T07:53:09.837Z,62.69
2018-09-06T07:55:38.845Z,60.79
2018-09-06T07:58:07.806Z,64.29
2018-09-06T08:00:40.585Z,63.13
2018-09-06T08:03:10.067Z,61.14
2018-09-06T08:05:39.101Z,60.88
2018-09-06T08:08:08.041Z,59.60
2018-09-06T08:10:37.162Z,61.21
2018-09-06T08:13:06.221Z,59.57
2018-09-06T08:15:35.137Z,58.88
2018-09-06T08:18:04.167Z,57.52
2018-09-06T08:20:33.501Z,58.01
2018-09-06T08:23:02.895Z,58.08
2018-09-06T08:25:32.141Z,56.18
2018-09-06T08:28:01.169Z,55.76
2018-09-06T08:30:30.233Z,55.98
2018-09-06T08:32:59.251Z,56.73
2018-09-06T08:35:28.238Z,56.77
2018-09-06T08:37:57.229Z,54.87
2018-09-06T08:40:26.249Z,54.26
2018-09-06T08:42:55.273Z,55.57
2018-09-06T08:45:24.267Z,53.71
2018-09-06T08:47:53.261Z,54.37
2018-09-06T08:50:22.247Z,51.94
2018-09-06T08:52:51.237Z,53.78
2018-09-06T08:55:20.128Z,54.14
2018-09-06T08:57:49.094Z,50.93
2018-09-06T09:00:18.025Z,49.92
2018-09-06T09:02:47.148Z,49.88
2018-09-06T09:05:16.049Z,53.25
2018-09-06T09:07:45.098Z,53.76
2018-09-06T09:10:14.086Z,53.35
2018-09-06T09:12:43.037Z,52.77
2018-09-06T09:15:11.984Z,53.66
2018-09-06T09:17:40.977Z,50.23
2018-09-06T09:20:09.930Z,53.53
2018-09-06T09:22:38.929Z,53.19
2018-09-06T09:25:07.829Z,50.26
2018-09-06T09:27:36.894Z,51.02
2018-09-06T09:30:05.865Z,50.29
2018-09-06T09:32:34.932Z,46.96
2018-09-06T09:35:03.942Z,47.05
2018-09-06T09:37:32.997Z,47.51
2018-09-06T09:40:02.278Z,49.51
2018-09-06T09:42:31.233Z,49.02
2018-09-06T09:45:00.167Z,46.22
2018-09-06T09:49:56.973Z,48.29
2018-09-06T09:52:25.930Z,48.33
2018-09-06T09:54:54.809Z,50.12
2018-09-06T09:57:23.778Z,49.01
2018-09-06T09:59:52.824Z,47.96
2018-09-06T10:02:26.976Z,47.52
2018-09-06T10:05:00.125Z,48.77
2018-09-06T10:07:34.584Z,49.26
2018-09-06T10:10:03.562Z,48.13
2018-09-06T10:12:32.545Z,47.63
2018-09-06T10:15:01.497Z,45.82
2018-09-06T10:17:30.501Z,44.32
2018-09-06T10:19:59.497Z,46.14
2018-09-06T10:22:28.465Z,42.54
2018-09-06T10:24:57.409Z,44.52
2018-09-06T10:27:26.436Z,44.17
2018-09-06T10:29:55.629Z,43.74
2018-09-06T10:32:25.009Z,43.81
2018-09-06T10:34:54.317Z,43.97
2018-09-06T10:37:23.354Z,41.97
2018-09-06T10:39:52.424Z,40.11
2018-09-06T10:42:21.395Z,40.40
2018-09-06T10:44:50.440Z,41.11
2018-09-06T10:47:19.422Z,40.80
2018-09-06T10:49:48.541Z,40.31
2018-09-06T10:52:17.489Z,39.08
2018-09-06T10:54:46.526Z,38.13
2018-09-06T10:57:15.515Z,37.95
2018-09-06T10:59:44.549Z,36.90
2018-09-06T11:02:13.570Z,40.15
2018-09-06T11:04:42.981Z,38.44
2018-09-06T11:07:11.936Z,37.69
2018-09-06T11:09:40.890Z,39.54
2018-09-06T11:12:09.845Z,39.10
2018-09-06T11:14:38.826Z,39.39
2018-09-06T11:17:07.864Z,39.66
2018-09-06T11:19:36.837Z,40.29
2018-09-06T11:22:06.064Z,39.24
2018-09-06T11:24:34.939Z,39.41
2018-09-06T11:27:04.124Z,39.34
2018-09-06T11:29:33.419Z,40.45
2018-09-06T11:32:02.381Z,41.24
2018-09-06T11:34:31.651Z,39.62
2018-09-06T11:37:00.678Z,38.06
2018-09-06T11:39:29.681Z,36.23
2018-09-06T11:41:58.806Z,39.76
2018-09-06T11:44:27.849Z,39.84
2018-09-06T11:46:56.982Z,40.03
2018-09-06T11:49:26.302Z,37.45
2018-09-06T11:51:55.410Z,40.50
2018-09-06T11:54:24.386Z,38.62
2018-09-06T11:56:53.391Z,38.52
2018-09-06T11:59:22.354Z,38.50
2018-09-06T12:01:51.367Z,38.54
2018-09-06T12:04:20.522Z,39.97
2018-09-06T12:06:49.430Z,41.47
2018-09-06T12:09:18.838Z,40.18
2018-09-06T12:11:47.769Z,39.53
2018-09-06T12:14:16.738Z,40.03
2018-09-06T12:16:45.709Z,39.91
2018-09-06T12:19:14.745Z,39.47
2018-09-06T12:21:43.702Z,41.05
2018-09-06T12:24:12.798Z,39.06
2018-09-06T12:26:41.782Z,40.94
2018-09-06T12:29:10.870Z,42.00
2018-09-06T12:31:40.114Z,40.84
2018-09-06T12:34:09.172Z,41.15
2018-09-06T12:36:38.146Z,44.28
2018-09-06T12:39:08.822Z,43.30
2018-09-06T12:41:37.754Z,44.05
2018-09-06T12:44:07.148Z,44.13
2018-09-06T12:46:36.145Z,44.34
2018-09-06T12:49:05.086Z,44.18
2018-09-06T12:51:33.998Z,44.46
2018-09-06T12:54:02.980Z,44.64
2018-09-06T12:56:31.960Z,45.63
2018-09-06T12:59:00.914Z,47.98
2018-09-06T13:01:29.854Z,48.88
2018-09-06T13:03:58.803Z,50.11
2018-09-06T13:06:27.725Z,49.94
2018-09-06T13:08:56.673Z,51.68
2018-09-06T13:11:25.697Z,53.34
2018-09-06T13:13:54.791Z,54.84
2018-09-06T13:16:23.666Z,57.47
2018-09-06T13:18:52.680Z,56.29
2018-09-06T13:21:21.807Z,57.08
2018-09-06T13:23:50.910Z,56.54
2018-09-06T13:26:20.032Z,55.30
2018-09-06T13:28:49.062Z,55.21
2018-09-06T13:31:18.601Z,56.16
2018-09-06T13:33:47.941Z,55.40
2018-09-06T13:36:16.861Z,55.24
2018-09-06T13:38:45.858Z,63.84
2018-09-06T13:41:14.804Z,67.78
2018-09-06T13:43:43.761Z,69.37
2018-09-06T13:46:12.790Z,71.38
2018-09-06T13:48:41.813Z,70.05
2018-09-06T13:51:10.771Z,71.38
2018-09-06T13:53:40.041Z,68.20
2018-09-06T13:56:09.054Z,67.20
2018-09-06T13:58:37.995Z,63.03
2018-09-06T14:01:07.049Z,62.69
2018-09-06T14:03:36.068Z,59.65
2018-09-06T14:06:05.039Z,58.55
2018-09-06T14:08:34.027Z,58.00
2018-09-06T14:11:02.991Z,57.50
2018-09-06T14:13:31.934Z,54.33
2018-09-06T14:16:01.063Z,55.32
2018-09-06T14:18:30.055Z,53.29
2018-09-06T14:20:59.197Z,52.03
2018-09-06T14:23:28.196Z,52.69
2018-09-06T14:25:57.181Z,56.81
2018-09-06T14:28:26.150Z,52.69
2018-09-06T14:30:55.182Z,54.00
2018-09-06T14:33:24.111Z,59.92
2018-09-06T14:35:53.325Z,63.15
2018-09-06T14:38:22.322Z,62.83
2018-09-06T14:40:51.321Z,57.54
2018-09-06T14:43:20.333Z,60.48
2018-09-06T14:45:49.321Z,57.32
2018-09-06T14:48:18.345Z,55.28
2018-09-06T14:50:47.838Z,56.03
2018-09-06T14:53:16.781Z,54.43
2018-09-06T14:55:45.775Z,55.38
2018-09-06T14:58:14.746Z,54.93
2018-09-06T15:00:43.794Z,55.17
2018-09-06T15:03:12.662Z,54.01
2018-09-06T15:05:41.594Z,53.62
2018-09-06T15:08:10.621Z,53.39
2018-09-06T15:10:39.553Z,53.63
2018-09-06T15:13:08.454Z,53.00
2018-09-06T15:15:37.513Z,53.66
2018-09-06T15:18:06.554Z,52.33
2018-09-06T15:20:35.484Z,52.86
2018-09-06T15:23:04.382Z,51.84
2018-09-06T15:25:33.470Z,52.39
2018-09-06T15:28:02.724Z,53.60
2018-09-06T15:30:31.770Z,52.97
2018-09-06T15:33:00.765Z,54.49
2018-09-06T15:35:29.718Z,55.17
2018-09-06T15:37:58.657Z,56.28
2018-09-06T15:40:27.654Z,55.64
2018-09-06T15:42:56.649Z,55.18
2018-09-06T15:45:25.637Z,56.46
2018-09-06T15:47:54.570Z,55.99
2018-09-06T15:50:23.627Z,55.90
2018-09-06T15:52:52.561Z,54.99
2018-09-06T15:55:21.566Z,54.65
2018-09-06T15:57:50.544Z,55.18
2018-09-06T16:00:19.567Z,54.51
2018-09-06T16:02:48.485Z,54.38
2018-09-06T16:05:17.461Z,53.25
2018-09-06T16:07:46.453Z,52.63
2018-09-06T16:10:15.360Z,53.06
2018-09-06T16:12:44.271Z,51.88
2018-09-06T16:15:13.215Z,51.75
2018-09-06T16:17:42.149Z,50.89
2018-09-06T16:20:11.171Z,51.85
2018-09-06T16:22:40.214Z,52.35
2018-09-06T16:25:09.210Z,52.05
2018-09-06T16:27:38.141Z,51.42
2018-09-06T16:30:07.540Z,51.70
2018-09-06T16:32:36.517Z,51.71
2018-09-06T16:35:05.495Z,51.36
2018-09-06T16:37:34.476Z,51.64
2018-09-06T16:40:03.397Z,52.23
2018-09-06T16:42:32.489Z,52.32
2018-09-06T16:45:01.481Z,53.74
2018-09-06T16:47:30.613Z,52.39
2018-09-06T16:49:59.662Z,52.48
2018-09-06T16:52:28.859Z,51.73
2018-09-06T16:54:57.942Z,51.01
2018-09-06T16:57:27.102Z,50.84
2018-09-06T16:59:56.400Z,51.22
2018-09-06T17:02:25.562Z,51.36
2018-09-06T17:04:54.601Z,51.34
2018-09-06T17:07:23.713Z,51.01
2018-09-06T17:09:52.803Z,52.65
2018-09-06T17:12:21.887Z,53.16
2018-09-06T17:14:50.893Z,52.47
2018-09-06T17:17:19.886Z,52.41
2018-09-06T17:19:49.050Z,53.26
2018-09-06T17:22:18.379Z,53.95
2018-09-06T17:24:47.464Z,55.07
2018-09-06T17:27:16.486Z,55.35
2018-09-06T17:29:45.457Z,55.46
2018-09-06T17:32:14.479Z,55.88
2018-09-06T17:34:43.409Z,55.78
2018-09-06T17:37:12.453Z,57.68
2018-09-06T17:39:41.534Z,57.81
2018-09-06T17:42:10.652Z,60.57
2018-09-06T17:44:39.598Z,60.27
2018-09-06T17:47:08.584Z,58.59
2018-09-06T17:49:37.527Z,62.41
2018-09-06T17:52:06.549Z,63.69
2018-09-06T17:54:35.657Z,61.96
2018-09-06T17:57:04.738Z,61.96
2018-09-06T17:59:33.717Z,61.06
2018-09-06T18:02:02.927Z,63.93
2018-09-06T18:04:31.858Z,65.96
2018-09-06T18:07:00.864Z,63.72
2018-09-06T18:09:30.164Z,62.66
2018-09-06T18:11:59.193Z,64.52
2018-09-06T18:14:28.230Z,66.38
2018-09-06T18:16:57.215Z,64.14
2018-09-06T18:19:26.179Z,65.12
2018-09-06T18:21:55.148Z,63.55
2018-09-06T18:24:24.149Z,64.40
2018-09-06T18:26:53.169Z,63.58
2018-09-06T18:29:22.111Z,63.98
2018-09-06T18:31:51.113Z,62.78
2018-09-06T18:34:20.028Z,62.66
2018-09-06T18:36:49.101Z,63.55
2018-09-06T18:39:18.069Z,63.30
2018-09-06T18:41:47.033Z,63.39
2018-09-06T18:44:16.045Z,62.95
2018-09-06T18:46:45.050Z,62.71
2018-09-06T18:49:14.035Z,61.86
2018-09-06T18:51:43.017Z,61.26
2018-09-06T18:54:11.987Z,61.81
2018-09-06T18:56:41.042Z,61.41
2018-09-06T18:59:10.045Z,62.23
2018-09-06T19:01:39.009Z,60.56
2018-09-06T19:04:07.950Z,59.87
2018-09-06T19:06:36.839Z,58.41
2018-09-06T19:09:08.515Z,58.76
2018-09-06T19:11:37.521Z,58.86
2018-09-06T19:14:06.574Z,60.31
2018-09-06T19:16:35.629Z,61.40
2018-09-06T19:19:04.706Z,60.82
2018-09-06T19:21:33.643Z,61.75
2018-09-06T19:24:02.659Z,61.45
2018-09-06T19:26:31.602Z,62.38
2018-09-06T19:29:00.594Z,62.78
2018-09-06T19:31:29.541Z,61.76
2018-09-06T19:33:58.705Z,60.97
2018-09-06T19:36:27.694Z,61.33
2018-09-06T19:38:56.775Z,59.93
2018-09-06T19:41:25.734Z,62.36
2018-09-06T19:43:54.937Z,60.46
2018-09-06T19:46:23.883Z,60.66
2018-09-06T19:48:52.887Z,62.08
2018-09-06T19:51:21.814Z,63.74
2018-09-06T19:53:51.049Z,63.33
2018-09-06T19:56:20.091Z,63.66
2018-09-06T19:58:49.272Z,64.25
2018-09-06T20:01:18.230Z,62.81
2018-09-06T20:03:47.766Z,64.15
2018-09-06T20:06:16.793Z,64.69
2018-09-06T20:08:45.839Z,65.83
2018-09-06T20:11:14.824Z,66.58
2018-09-06T20:13:43.842Z,65.98
2018-09-06T20:16:12.778Z,66.05
2018-09-06T20:18:41.756Z,66.89
2018-09-06T20:21:10.709Z,66.29
2018-09-06T20:23:39.731Z,64.78
2018-09-06T20:26:08.718Z,65.56
2018-09-06T20:28:37.801Z,65.61
2018-09-06T20:31:06.761Z,66.96
2018-09-06T20:33:35.856Z,65.97
2018-09-06T20:36:04.854Z,67.16
2018-09-06T20:38:33.802Z,68.03
2018-09-06T20:41:02.738Z,67.08
2018-09-06T20:43:31.845Z,67.05
2018-09-06T20:46:00.869Z,68.09
2018-09-06T20:48:29.858Z,67.15
2018-09-06T20:50:58.943Z,65.98
2018-09-06T20:53:27.898Z,67.46
2018-09-06T20:55:56.887Z,68.17
2018-09-06T20:58:25.882Z,67.83
2018-09-06T21:00:54.866Z,66.79
2018-09-06T21:03:23.874Z,65.70
2018-09-06T21:05:53.013Z,64.51
2018-09-06T21:08:22.167Z,66.18
2018-09-06T21:10:51.161Z,65.62
2018-09-06T21:13:20.146Z,64.03
2018-09-06T21:15:49.117Z,63.92
2018-09-06T21:18:18.265Z,64.85
2018-09-06T21:20:47.258Z,63.44
2018-09-06T21:23:16.284Z,63.11
2018-09-06T21:25:45.301Z,64.09
2018-09-06T21:28:14.309Z,64.52
2018-09-06T21:30:43.339Z,64.44
2018-09-06T21:33:12.257Z,63.80
2018-09-06T21:35:41.219Z,63.48
2018-09-06T21:38:10.198Z,63.14
2018-09-06T21:40:39.178Z,63.34
2018-09-06T21:43:08.206Z,63.02
2018-09-06T21:45:37.212Z,63.43
2018-09-06T21:48:06.125Z,64.01
2018-09-06T21:50:35.193Z,64.31
2018-09-06T21:53:04.122Z,63.62
2018-09-06T21:55:33.080Z,64.02
2018-09-06T21:58:02.173Z,64.26
2018-09-06T22:00:31.784Z,63.85
2018-09-06T22:03:05.859Z,64.09
2018-09-06T22:05:34.830Z,64.16
2018-09-06T22:08:03.785Z,63.63
2018-09-06T22:10:32.730Z,64.43
2018-09-06T22:13:01.722Z,65.10
2018-09-06T22:15:30.826Z,65.12
2018-09-06T22:17:59.781Z,63.36
2018-09-06T22:20:28.770Z,62.94
2018-09-06T22:22:57.808Z,64.54
2018-09-06T22:25:26.806Z,64.89
2018-09-06T22:27:55.771Z,63.79
2018-09-06T22:30:24.702Z,63.58
2018-09-06T22:32:53.797Z,64.19
2018-09-06T22:35:22.758Z,63.76
2018-09-06T22:37:51.728Z,64.60
2018-09-06T22:40:20.709Z,64.95
2018-09-06T22:42:49.694Z,66.46
2018-09-06T22:45:18.706Z,63.91
2018-09-06T22:47:47.801Z,62.79
2018-09-06T22:50:16.862Z,65.13
2018-09-06T22:52:45.878Z,63.77
2018-09-06T22:55:14.907Z,63.82
2018-09-06T22:57:43.999Z,64.48
2018-09-06T23:00:13.050Z,65.28
2018-09-06T23:02:46.983Z,64.67
2018-09-06T23:05:16.115Z,66.08
2018-09-06T23:07:45.086Z,65.63
2018-09-06T23:10:14.152Z,66.40
2018-09-06T23:12:43.120Z,66.27
2018-09-06T23:15:12.177Z,66.47
2018-09-06T23:17:41.138Z,67.25
2018-09-06T23:20:10.145Z,67.27
2018-09-06T23:22:39.874Z,65.42
2018-09-06T23:25:09.865Z,64.71
2018-09-06T23:27:38.748Z,64.89
2018-09-06T23:30:07.843Z,66.01
2018-09-06T23:32:36.783Z,66.40
2018-09-06T23:35:05.773Z,65.81
2018-09-06T23:37:34.733Z,64.99
2018-09-06T23:40:03.705Z,66.84
2018-09-06T23:42:32.647Z,66.78
2018-09-06T23:45:01.590Z,65.69
2018-09-06T23:47:30.558Z,68.07
2018-09-06T23:49:59.585Z,66.11
2018-09-06T23:52:28.626Z,67.18
2018-09-06T23:54:57.638Z,65.46
2018-09-06T23:57:26.557Z,66.00
2018-09-06T23:59:55.669Z,67.03
